sensor_id;sensor_type;location;lat;lon;timestamp;P1;durP1;ratioP1;P2;durP2;ratioP2
37449;SDS011;23309;52.582;13.406;2022-08-01T00:01:21;5.10;;;3.47;;
37449;SDS011;23309;52.582;13.406;2022-08-01T00:03:50;3.77;;;3.40;;
37449;SDS011;23309;52.582;13.406;2022-08-01T00:06:16;4.43;;;3.70;;
37449;SDS011;23309;52.582;13.406;2022-08-01T00:08:43;4.53;;;3.17;;
37449;SDS011;23309;52.582;13.406;2022-08-01T00:11:09;8.43;;;3.60;;
37449;SDS011;23309;52.582;13.406;2022-08-01T00:13:35;6.60;;;3.70;;
37449;SDS011;23309;52.582;13.406;2022-08-01T00:16:01;4.27;;;3.57;;
37449;SDS011;23309;52.582;13.406;2022-08-01T00:18:27;3.70;;;3.30;;
37449;SDS011;23309;52.582;13.406;2022-08-01T00:20:56;5.23;;;3.20;;
37449;SDS011;23309;52.582;13.406;2022-08-01T00:23:22;4.53;;;3.47;;
37449;SDS011;23309;52.582;13.406;2022-08-01T00:25:48;6.67;;;3.90;;
37449;SDS011;23309;52.582;13.406;2022-08-01T00:28:14;5.27;;;3.50;;
37449;SDS011;23309;52.582;13.406;2022-08-01T00:30:40;3.40;;;3.10;;
37449;SDS011;23309;52.582;13.406;2022-08-01T00:33:06;4.43;;;3.97;;
37449;SDS011;23309;52.582;13.406;2022-08-01T00:35:33;5.63;;;3.83;;
37449;SDS011;23309;52.582;13.406;2022-08-01T00:38:01;6.73;;;3.90;;
37449;SDS011;23309;52.582;13.406;2022-08-01T00:40:28;5.97;;;4.20;;
37449;SDS011;23309;52.582;13.406;2022-08-01T00:42:54;5.53;;;3.93;;
37449;SDS011;23309;52.582;13.406;2022-08-01T00:45:20;6.50;;;3.90;;
37449;SDS011;23309;52.582;13.406;2022-08-01T00:47:46;4.40;;;4.00;;
37449;SDS011;23309;52.582;13.406;2022-08-01T00:50:12;5.60;;;4.30;;
37449;SDS011;23309;52.582;13.406;2022-08-01T00:52:38;7.97;;;3.90;;
37449;SDS011;23309;52.582;13.406;2022-08-01T00:55:08;4.40;;;4.00;;
37449;SDS011;23309;52.582;13.406;2022-08-01T00:57:37;5.50;;;4.13;;
37449;SDS011;23309;52.582;13.406;2022-08-01T01:00:05;6.00;;;3.80;;
37449;SDS011;23309;52.582;13.406;2022-08-01T01:02:33;4.53;;;4.00;;
37449;SDS011;23309;52.582;13.406;2022-08-01T01:05:00;5.27;;;3.87;;
37449;SDS011;23309;52.582;13.406;2022-08-01T01:07:29;5.43;;;4.23;;
37449;SDS011;23309;52.582;13.406;2022-08-01T01:10:05;4.37;;;3.97;;
37449;SDS011;23309;52.582;13.406;2022-08-01T01:12:43;7.07;;;3.60;;
37449;SDS011;23309;52.582;13.406;2022-08-01T01:15:17;5.27;;;3.70;;
37449;SDS011;23309;52.582;13.406;2022-08-01T01:17:51;5.20;;;3.83;;
37449;SDS011;23309;52.582;13.406;2022-08-01T01:20:23;5.33;;;4.07;;
37449;SDS011;23309;52.582;13.406;2022-08-01T01:23:01;5.57;;;4.20;;
37449;SDS011;23309;52.582;13.406;2022-08-01T01:25:44;9.07;;;3.67;;
37449;SDS011;23309;52.582;13.406;2022-08-01T01:28:29;4.30;;;3.73;;
37449;SDS011;23309;52.582;13.406;2022-08-01T01:31:08;4.63;;;4.00;;
37449;SDS011;23309;52.582;13.406;2022-08-01T01:33:37;4.47;;;3.80;;
37449;SDS011;23309;52.582;13.406;2022-08-01T01:36:05;4.80;;;4.20;;
37449;SDS011;23309;52.582;13.406;2022-08-01T01:38:37;7.73;;;3.80;;
37449;SDS011;23309;52.582;13.406;2022-08-01T01:41:08;5.67;;;4.40;;
37449;SDS011;23309;52.582;13.406;2022-08-01T01:43:36;4.40;;;3.73;;
37449;SDS011;23309;52.582;13.406;2022-08-01T01:46:04;5.83;;;3.70;;
37449;SDS011;23309;52.582;13.406;2022-08-01T01:48:34;4.70;;;3.80;;
37449;SDS011;23309;52.582;13.406;2022-08-01T01:51:01;5.07;;;4.07;;
37449;SDS011;23309;52.582;13.406;2022-08-01T01:53:28;7.90;;;3.73;;
37449;SDS011;23309;52.582;13.406;2022-08-01T01:55:58;4.53;;;3.60;;
37449;SDS011;23309;52.582;13.406;2022-08-01T01:58:27;3.33;;;3.03;;
37449;SDS011;23309;52.582;13.406;2022-08-01T02:00:57;5.07;;;3.70;;
37449;SDS011;23309;52.582;13.406;2022-08-01T02:03:30;3.97;;;3.43;;
37449;SDS011;23309;52.582;13.406;2022-08-01T02:05:56;4.93;;;3.70;;
37449;SDS011;23309;52.582;13.406;2022-08-01T02:08:24;8.93;;;4.03;;
37449;SDS011;23309;52.582;13.406;2022-08-01T02:10:52;4.53;;;3.70;;
37449;SDS011;23309;52.582;13.406;2022-08-01T02:13:20;4.83;;;3.87;;
37449;SDS011;23309;52.582;13.406;2022-08-01T02:15:47;6.50;;;4.37;;
37449;SDS011;23309;52.582;13.406;2022-08-01T02:18:13;4.73;;;4.13;;
37449;SDS011;23309;52.582;13.406;2022-08-01T02:20:42;7.10;;;4.00;;
37449;SDS011;23309;52.582;13.406;2022-08-01T02:23:10;5.30;;;4.30;;
37449;SDS011;23309;52.582;13.406;2022-08-01T02:25:38;5.03;;;4.00;;
37449;SDS011;23309;52.582;13.406;2022-08-01T02:28:10;4.70;;;3.70;;
37449;SDS011;23309;52.582;13.406;2022-08-01T02:30:44;7.83;;;4.10;;
37449;SDS011;23309;52.582;13.406;2022-08-01T02:33:15;4.17;;;3.77;;
37449;SDS011;23309;52.582;13.406;2022-08-01T02:35:48;5.70;;;3.30;;
37449;SDS011;23309;52.582;13.406;2022-08-01T02:38:18;5.03;;;4.00;;
37449;SDS011;23309;52.582;13.406;2022-08-01T02:40:49;5.10;;;3.60;;
37449;SDS011;23309;52.582;13.406;2022-08-01T02:43:19;3.90;;;3.53;;
37449;SDS011;23309;52.582;13.406;2022-08-01T02:45:49;5.33;;;4.40;;
37449;SDS011;23309;52.582;13.406;2022-08-01T02:48:21;4.00;;;3.70;;
37449;SDS011;23309;52.582;13.406;2022-08-01T02:50:52;3.80;;;3.50;;
37449;SDS011;23309;52.582;13.406;2022-08-01T02:53:23;4.93;;;3.70;;
37449;SDS011;23309;52.582;13.406;2022-08-01T02:55:52;5.00;;;3.70;;
37449;SDS011;23309;52.582;13.406;2022-08-01T02:58:20;3.70;;;3.40;;
37449;SDS011;23309;52.582;13.406;2022-08-01T03:00:47;4.97;;;3.43;;
37449;SDS011;23309;52.582;13.406;2022-08-01T03:03:14;10.17;;;4.30;;
37449;SDS011;23309;52.582;13.406;2022-08-01T03:05:41;4.73;;;3.80;;
37449;SDS011;23309;52.582;13.406;2022-08-01T03:08:12;4.03;;;3.73;;
37449;SDS011;23309;52.582;13.406;2022-08-01T03:10:41;4.00;;;3.70;;
37449;SDS011;23309;52.582;13.406;2022-08-01T03:13:10;12.80;;;4.50;;
37449;SDS011;23309;52.582;13.406;2022-08-01T03:15:38;5.00;;;3.60;;
37449;SDS011;23309;52.582;13.406;2022-08-01T03:18:07;6.33;;;3.30;;
37449;SDS011;23309;52.582;13.406;2022-08-01T03:20:36;4.33;;;3.13;;
37449;SDS011;23309;52.582;13.406;2022-08-01T03:23:04;4.43;;;4.00;;
37449;SDS011;23309;52.582;13.406;2022-08-01T03:25:36;4.63;;;3.20;;
37449;SDS011;23309;52.582;13.406;2022-08-01T03:28:06;5.13;;;3.80;;
37449;SDS011;23309;52.582;13.406;2022-08-01T03:30:34;5.07;;;3.80;;
37449;SDS011;23309;52.582;13.406;2022-08-01T03:33:02;4.20;;;3.63;;
37449;SDS011;23309;52.582;13.406;2022-08-01T03:35:29;4.50;;;3.97;;
37449;SDS011;23309;52.582;13.406;2022-08-01T03:37:59;5.00;;;4.50;;
37449;SDS011;23309;52.582;13.406;2022-08-01T03:40:28;5.70;;;4.17;;
37449;SDS011;23309;52.582;13.406;2022-08-01T03:43:02;5.27;;;4.37;;
37449;SDS011;23309;52.582;13.406;2022-08-01T03:45:34;5.30;;;3.67;;
37449;SDS011;23309;52.582;13.406;2022-08-01T03:48:05;4.47;;;3.80;;
37449;SDS011;23309;52.582;13.406;2022-08-01T03:50:39;6.53;;;4.50;;
37449;SDS011;23309;52.582;13.406;2022-08-01T03:53:09;6.13;;;3.87;;
37449;SDS011;23309;52.582;13.406;2022-08-01T03:55:40;4.60;;;3.53;;
37449;SDS011;23309;52.582;13.406;2022-08-01T03:58:09;4.63;;;4.23;;
37449;SDS011;23309;52.582;13.406;2022-08-01T04:00:36;4.83;;;4.30;;
37449;SDS011;23309;52.582;13.406;2022-08-01T04:03:03;5.00;;;4.40;;
37449;SDS011;23309;52.582;13.406;2022-08-01T04:05:30;5.50;;;4.23;;
37449;SDS011;23309;52.582;13.406;2022-08-01T04:07:56;5.40;;;4.20;;
37449;SDS011;23309;52.582;13.406;2022-08-01T04:10:22;5.10;;;3.90;;
37449;SDS011;23309;52.582;13.406;2022-08-01T04:12:52;6.10;;;4.10;;
37449;SDS011;23309;52.582;13.406;2022-08-01T04:15:18;5.60;;;4.43;;
37449;SDS011;23309;52.582;13.406;2022-08-01T04:17:44;9.70;;;4.50;;
37449;SDS011;23309;52.582;13.406;2022-08-01T04:20:10;6.10;;;4.53;;
37449;SDS011;23309;52.582;13.406;2022-08-01T04:22:37;7.50;;;4.77;;
37449;SDS011;23309;52.582;13.406;2022-08-01T04:25:04;5.97;;;5.07;;
37449;SDS011;23309;52.582;13.406;2022-08-01T04:27:38;7.13;;;5.70;;
37449;SDS011;23309;52.582;13.406;2022-08-01T04:30:11;9.20;;;5.23;;
37449;SDS011;23309;52.582;13.406;2022-08-01T04:32:38;6.60;;;5.00;;
37449;SDS011;23309;52.582;13.406;2022-08-01T04:35:07;9.50;;;5.17;;
37449;SDS011;23309;52.582;13.406;2022-08-01T04:37:36;7.60;;;5.63;;
37449;SDS011;23309;52.582;13.406;2022-08-01T04:40:04;6.00;;;5.17;;
37449;SDS011;23309;52.582;13.406;2022-08-01T04:42:33;8.80;;;5.80;;
37449;SDS011;23309;52.582;13.406;2022-08-01T04:44:59;8.63;;;5.97;;
37449;SDS011;23309;52.582;13.406;2022-08-01T04:47:29;8.73;;;6.07;;
37449;SDS011;23309;52.582;13.406;2022-08-01T04:49:56;10.80;;;6.30;;
37449;SDS011;23309;52.582;13.406;2022-08-01T04:52:23;12.27;;;6.73;;
37449;SDS011;23309;52.582;13.406;2022-08-01T04:54:59;8.40;;;6.70;;
37449;SDS011;23309;52.582;13.406;2022-08-01T04:57:25;8.83;;;6.83;;
37449;SDS011;23309;52.582;13.406;2022-08-01T04:59:51;8.33;;;7.00;;
37449;SDS011;23309;52.582;13.406;2022-08-01T05:02:17;10.70;;;8.20;;
37449;SDS011;23309;52.582;13.406;2022-08-01T05:04:46;9.47;;;7.63;;
37449;SDS011;23309;52.582;13.406;2022-08-01T05:07:12;8.67;;;7.40;;
37449;SDS011;23309;52.582;13.406;2022-08-01T05:09:39;20.00;;;8.97;;
37449;SDS011;23309;52.582;13.406;2022-08-01T05:12:07;8.60;;;7.50;;
37449;SDS011;23309;52.582;13.406;2022-08-01T05:14:34;10.77;;;7.80;;
37449;SDS011;23309;52.582;13.406;2022-08-01T05:17:01;10.60;;;7.97;;
37449;SDS011;23309;52.582;13.406;2022-08-01T05:19:29;10.40;;;8.00;;
37449;SDS011;23309;52.582;13.406;2022-08-01T05:21:59;9.10;;;7.80;;
37449;SDS011;23309;52.582;13.406;2022-08-01T05:24:27;9.20;;;7.60;;
37449;SDS011;23309;52.582;13.406;2022-08-01T05:26:53;9.93;;;7.13;;
37449;SDS011;23309;52.582;13.406;2022-08-01T05:29:19;8.27;;;7.40;;
37449;SDS011;23309;52.582;13.406;2022-08-01T05:31:45;10.77;;;7.70;;
37449;SDS011;23309;52.582;13.406;2022-08-01T05:34:12;10.50;;;7.73;;
37449;SDS011;23309;52.582;13.406;2022-08-01T05:36:38;12.73;;;8.00;;
37449;SDS011;23309;52.582;13.406;2022-08-01T05:39:06;12.67;;;8.33;;
37449;SDS011;23309;52.582;13.406;2022-08-01T05:41:33;8.80;;;7.80;;
37449;SDS011;23309;52.582;13.406;2022-08-01T05:43:59;11.50;;;7.70;;
37449;SDS011;23309;52.582;13.406;2022-08-01T05:46:27;8.30;;;7.50;;
37449;SDS011;23309;52.582;13.406;2022-08-01T05:48:53;8.23;;;7.43;;
37449;SDS011;23309;52.582;13.406;2022-08-01T05:51:19;9.60;;;8.03;;
37449;SDS011;23309;52.582;13.406;2022-08-01T05:53:45;8.50;;;7.07;;
37449;SDS011;23309;52.582;13.406;2022-08-01T05:56:14;8.73;;;7.50;;
37449;SDS011;23309;52.582;13.406;2022-08-01T05:58:40;7.90;;;7.10;;
37449;SDS011;23309;52.582;13.406;2022-08-01T06:01:06;8.97;;;6.93;;
37449;SDS011;23309;52.582;13.406;2022-08-01T06:03:32;8.43;;;7.20;;
37449;SDS011;23309;52.582;13.406;2022-08-01T06:05:58;6.63;;;5.70;;
37449;SDS011;23309;52.582;13.406;2022-08-01T06:08:25;11.43;;;6.37;;
37449;SDS011;23309;52.582;13.406;2022-08-01T06:10:51;10.40;;;6.27;;
37449;SDS011;23309;52.582;13.406;2022-08-01T06:13:19;8.93;;;5.87;;
37449;SDS011;23309;52.582;13.406;2022-08-01T06:15:46;7.10;;;6.50;;
37449;SDS011;23309;52.582;13.406;2022-08-01T06:18:12;9.80;;;6.30;;
37449;SDS011;23309;52.582;13.406;2022-08-01T06:20:39;12.57;;;6.60;;
37449;SDS011;23309;52.582;13.406;2022-08-01T06:23:05;6.67;;;6.07;;
37449;SDS011;23309;52.582;13.406;2022-08-01T06:25:32;6.43;;;5.87;;
37449;SDS011;23309;52.582;13.406;2022-08-01T06:27:58;6.17;;;5.57;;
37449;SDS011;23309;52.582;13.406;2022-08-01T06:30:27;6.27;;;5.67;;
37449;SDS011;23309;52.582;13.406;2022-08-01T06:32:53;5.67;;;5.17;;
37449;SDS011;23309;52.582;13.406;2022-08-01T06:35:19;6.00;;;5.40;;
37449;SDS011;23309;52.582;13.406;2022-08-01T06:37:45;5.93;;;5.43;;
37449;SDS011;23309;52.582;13.406;2022-08-01T06:40:12;5.33;;;4.80;;
37449;SDS011;23309;52.582;13.406;2022-08-01T06:42:39;5.17;;;4.60;;
37449;SDS011;23309;52.582;13.406;2022-08-01T06:45:06;8.43;;;4.80;;
37449;SDS011;23309;52.582;13.406;2022-08-01T06:47:37;4.73;;;4.20;;
37449;SDS011;23309;52.582;13.406;2022-08-01T06:50:04;4.60;;;4.20;;
37449;SDS011;23309;52.582;13.406;2022-08-01T06:52:33;5.00;;;3.70;;
37449;SDS011;23309;52.582;13.406;2022-08-01T06:54:59;4.10;;;3.70;;
37449;SDS011;23309;52.582;13.406;2022-08-01T06:57:27;4.93;;;3.57;;
37449;SDS011;23309;52.582;13.406;2022-08-01T06:59:53;4.07;;;3.70;;
37449;SDS011;23309;52.582;13.406;2022-08-01T07:02:20;4.03;;;3.60;;
37449;SDS011;23309;52.582;13.406;2022-08-01T07:04:49;3.70;;;3.40;;
37449;SDS011;23309;52.582;13.406;2022-08-01T07:07:15;4.70;;;3.20;;
37449;SDS011;23309;52.582;13.406;2022-08-01T07:09:42;4.20;;;3.60;;
37449;SDS011;23309;52.582;13.406;2022-08-01T07:12:08;3.50;;;3.30;;
37449;SDS011;23309;52.582;13.406;2022-08-01T07:14:34;3.30;;;3.00;;
37449;SDS011;23309;52.582;13.406;2022-08-01T07:17:00;3.80;;;3.50;;
37449;SDS011;23309;52.582;13.406;2022-08-01T07:19:28;5.87;;;3.17;;
37449;SDS011;23309;52.582;13.406;2022-08-01T07:21:56;3.97;;;3.20;;
37449;SDS011;23309;52.582;13.406;2022-08-01T07:24:22;3.53;;;3.20;;
37449;SDS011;23309;52.582;13.406;2022-08-01T07:26:48;3.70;;;3.33;;
37449;SDS011;23309;52.582;13.406;2022-08-01T07:29:14;5.43;;;3.80;;
37449;SDS011;23309;52.582;13.406;2022-08-01T07:31:41;4.37;;;3.83;;
37449;SDS011;23309;52.582;13.406;2022-08-01T07:34:07;3.50;;;3.20;;
37449;SDS011;23309;52.582;13.406;2022-08-01T07:36:33;3.30;;;3.10;;
37449;SDS011;23309;52.582;13.406;2022-08-01T07:39:02;3.50;;;3.20;;
37449;SDS011;23309;52.582;13.406;2022-08-01T07:41:28;3.83;;;2.90;;
37449;SDS011;23309;52.582;13.406;2022-08-01T07:43:55;3.67;;;3.37;;
37449;SDS011;23309;52.582;13.406;2022-08-01T07:46:21;3.37;;;3.17;;
37449;SDS011;23309;52.582;13.406;2022-08-01T07:48:47;4.00;;;3.27;;
37449;SDS011;23309;52.582;13.406;2022-08-01T07:51:13;3.37;;;3.07;;
37449;SDS011;23309;52.582;13.406;2022-08-01T07:53:39;4.37;;;3.60;;
37449;SDS011;23309;52.582;13.406;2022-08-01T07:56:08;3.33;;;3.03;;
37449;SDS011;23309;52.582;13.406;2022-08-01T07:58:34;3.10;;;2.90;;
37449;SDS011;23309;52.582;13.406;2022-08-01T08:01:03;3.30;;;3.00;;
37449;SDS011;23309;52.582;13.406;2022-08-01T08:03:29;3.60;;;3.30;;
37449;SDS011;23309;52.582;13.406;2022-08-01T08:05:55;4.50;;;3.20;;
37449;SDS011;23309;52.582;13.406;2022-08-01T08:08:21;3.30;;;3.00;;
37449;SDS011;23309;52.582;13.406;2022-08-01T08:10:47;3.27;;;2.97;;
37449;SDS011;23309;52.582;13.406;2022-08-01T08:13:16;3.37;;;3.07;;
37449;SDS011;23309;52.582;13.406;2022-08-01T08:15:43;2.73;;;2.53;;
37449;SDS011;23309;52.582;13.406;2022-08-01T08:18:09;3.63;;;2.60;;
37449;SDS011;23309;52.582;13.406;2022-08-01T08:20:35;3.43;;;3.07;;
37449;SDS011;23309;52.582;13.406;2022-08-01T08:23:01;3.60;;;2.80;;
37449;SDS011;23309;52.582;13.406;2022-08-01T08:25:27;3.90;;;3.10;;
37449;SDS011;23309;52.582;13.406;2022-08-01T08:27:53;2.90;;;2.70;;
37449;SDS011;23309;52.582;13.406;2022-08-01T08:30:22;2.80;;;2.60;;
37449;SDS011;23309;52.582;13.406;2022-08-01T08:32:48;2.80;;;2.60;;
37449;SDS011;23309;52.582;13.406;2022-08-01T08:35:14;2.60;;;2.40;;
37449;SDS011;23309;52.582;13.406;2022-08-01T08:37:40;2.90;;;2.57;;
37449;SDS011;23309;52.582;13.406;2022-08-01T08:40:07;3.30;;;3.00;;
37449;SDS011;23309;52.582;13.406;2022-08-01T08:42:35;3.40;;;3.10;;
37449;SDS011;23309;52.582;13.406;2022-08-01T08:45:05;2.70;;;2.50;;
37449;SDS011;23309;52.582;13.406;2022-08-01T08:47:35;3.00;;;2.00;;
37449;SDS011;23309;52.582;13.406;2022-08-01T08:50:02;3.77;;;2.00;;
37449;SDS011;23309;52.582;13.406;2022-08-01T08:52:30;1.80;;;1.70;;
37449;SDS011;23309;52.582;13.406;2022-08-01T08:55:00;2.97;;;1.90;;
37449;SDS011;23309;52.582;13.406;2022-08-01T08:57:27;5.23;;;2.20;;
37449;SDS011;23309;52.582;13.406;2022-08-01T08:59:55;2.13;;;2.03;;
37449;SDS011;23309;52.582;13.406;2022-08-01T09:02:21;3.03;;;2.20;;
37449;SDS011;23309;52.582;13.406;2022-08-01T09:04:50;2.20;;;2.07;;
37449;SDS011;23309;52.582;13.406;2022-08-01T09:07:17;2.40;;;1.80;;
37449;SDS011;23309;52.582;13.406;2022-08-01T09:09:43;1.80;;;1.70;;
37449;SDS011;23309;52.582;13.406;2022-08-01T09:12:09;2.70;;;2.13;;
37449;SDS011;23309;52.582;13.406;2022-08-01T09:14:36;1.77;;;1.63;;
37449;SDS011;23309;52.582;13.406;2022-08-01T09:17:11;2.07;;;1.97;;
37449;SDS011;23309;52.582;13.406;2022-08-01T09:19:37;4.53;;;2.00;;
37449;SDS011;23309;52.582;13.406;2022-08-01T09:22:09;2.30;;;1.93;;
37449;SDS011;23309;52.582;13.406;2022-08-01T09:24:38;1.70;;;1.60;;
37449;SDS011;23309;52.582;13.406;2022-08-01T09:27:14;2.33;;;1.90;;
37449;SDS011;23309;52.582;13.406;2022-08-01T09:29:43;1.80;;;1.70;;
37449;SDS011;23309;52.582;13.406;2022-08-01T09:32:09;1.97;;;1.80;;
37449;SDS011;23309;52.582;13.406;2022-08-01T09:34:36;3.13;;;2.03;;
37449;SDS011;23309;52.582;13.406;2022-08-01T09:37:02;2.13;;;1.97;;
37449;SDS011;23309;52.582;13.406;2022-08-01T09:39:32;2.53;;;2.33;;
37449;SDS011;23309;52.582;13.406;2022-08-01T09:42:00;2.60;;;2.40;;
37449;SDS011;23309;52.582;13.406;2022-08-01T09:44:43;2.80;;;2.13;;
37449;SDS011;23309;52.582;13.406;2022-08-01T09:47:10;3.93;;;2.33;;
37449;SDS011;23309;52.582;13.406;2022-08-01T09:49:38;2.53;;;2.10;;
37449;SDS011;23309;52.582;13.406;2022-08-01T09:52:10;2.27;;;2.17;;
37449;SDS011;23309;52.582;13.406;2022-08-01T09:54:43;2.83;;;2.53;;
37449;SDS011;23309;52.582;13.406;2022-08-01T09:57:18;2.50;;;2.30;;
37449;SDS011;23309;52.582;13.406;2022-08-01T09:59:46;5.10;;;2.50;;
37449;SDS011;23309;52.582;13.406;2022-08-01T10:02:27;2.53;;;2.33;;
37449;SDS011;23309;52.582;13.406;2022-08-01T10:04:56;3.93;;;2.27;;
37449;SDS011;23309;52.582;13.406;2022-08-01T10:07:27;2.63;;;2.43;;
37449;SDS011;23309;52.582;13.406;2022-08-01T10:09:57;2.30;;;2.10;;
37449;SDS011;23309;52.582;13.406;2022-08-01T10:12:36;3.83;;;2.30;;
37449;SDS011;23309;52.582;13.406;2022-08-01T10:15:05;2.37;;;2.17;;
37449;SDS011;23309;52.582;13.406;2022-08-01T10:17:33;2.67;;;2.47;;
37449;SDS011;23309;52.582;13.406;2022-08-01T10:20:04;6.13;;;5.30;;
37449;SDS011;23309;52.582;13.406;2022-08-01T10:22:32;4.53;;;2.37;;
37449;SDS011;23309;52.582;13.406;2022-08-01T10:25:04;2.70;;;2.50;;
37449;SDS011;23309;52.582;13.406;2022-08-01T10:27:32;2.57;;;2.37;;
37449;SDS011;23309;52.582;13.406;2022-08-01T10:30:03;2.83;;;2.10;;
37449;SDS011;23309;52.582;13.406;2022-08-01T10:32:31;3.73;;;2.13;;
37449;SDS011;23309;52.582;13.406;2022-08-01T10:34:58;5.63;;;2.47;;
37449;SDS011;23309;52.582;13.406;2022-08-01T10:37:27;3.10;;;2.50;;
37449;SDS011;23309;52.582;13.406;2022-08-01T10:39:53;3.60;;;2.20;;
37449;SDS011;23309;52.582;13.406;2022-08-01T10:42:22;2.20;;;2.10;;
37449;SDS011;23309;52.582;13.406;2022-08-01T10:44:48;2.87;;;2.40;;
37449;SDS011;23309;52.582;13.406;2022-08-01T10:47:17;3.03;;;2.10;;
37449;SDS011;23309;52.582;13.406;2022-08-01T10:49:51;2.23;;;1.97;;
37449;SDS011;23309;52.582;13.406;2022-08-01T10:52:27;2.00;;;1.90;;
37449;SDS011;23309;52.582;13.406;2022-08-01T10:55:01;3.17;;;1.70;;
37449;SDS011;23309;52.582;13.406;2022-08-01T10:57:43;2.43;;;1.60;;
37449;SDS011;23309;52.582;13.406;2022-08-01T11:00:15;2.07;;;1.73;;
37449;SDS011;23309;52.582;13.406;2022-08-01T11:02:56;3.90;;;1.63;;
37449;SDS011;23309;52.582;13.406;2022-08-01T11:05:23;1.70;;;1.60;;
37449;SDS011;23309;52.582;13.406;2022-08-01T11:07:52;1.80;;;1.70;;
37449;SDS011;23309;52.582;13.406;2022-08-01T11:10:22;2.53;;;1.73;;
37449;SDS011;23309;52.582;13.406;2022-08-01T11:12:58;2.30;;;1.80;;
37449;SDS011;23309;52.582;13.406;2022-08-01T11:15:25;1.97;;;1.83;;
37449;SDS011;23309;52.582;13.406;2022-08-01T11:17:51;1.50;;;1.40;;
37449;SDS011;23309;52.582;13.406;2022-08-01T11:20:19;1.83;;;1.60;;
37449;SDS011;23309;52.582;13.406;2022-08-01T11:28:45;1.57;;;1.47;;
37449;SDS011;23309;52.582;13.406;2022-08-01T11:31:39;1.80;;;1.53;;
37449;SDS011;23309;52.582;13.406;2022-08-01T11:34:05;2.60;;;1.50;;
37449;SDS011;23309;52.582;13.406;2022-08-01T11:36:31;1.50;;;1.40;;
37449;SDS011;23309;52.582;13.406;2022-08-01T11:41:41;1.90;;;1.67;;
37449;SDS011;23309;52.582;13.406;2022-08-01T11:44:10;4.60;;;1.90;;
37449;SDS011;23309;52.582;13.406;2022-08-01T11:46:49;1.90;;;1.53;;
37449;SDS011;23309;52.582;13.406;2022-08-01T11:49:22;1.70;;;1.60;;
37449;SDS011;23309;52.582;13.406;2022-08-01T11:51:56;1.90;;;1.20;;
37449;SDS011;23309;52.582;13.406;2022-08-01T11:54:24;3.23;;;1.40;;
37449;SDS011;23309;52.582;13.406;2022-08-01T11:56:54;4.73;;;1.57;;
37449;SDS011;23309;52.582;13.406;2022-08-01T11:59:21;1.30;;;1.20;;
37449;SDS011;23309;52.582;13.406;2022-08-01T12:01:50;2.60;;;1.50;;
37449;SDS011;23309;52.582;13.406;2022-08-01T12:04:17;2.03;;;1.50;;
37449;SDS011;23309;52.582;13.406;2022-08-01T12:06:44;1.40;;;1.30;;
37449;SDS011;23309;52.582;13.406;2022-08-01T12:09:17;2.23;;;1.57;;
37449;SDS011;23309;52.582;13.406;2022-08-01T12:11:45;2.77;;;1.53;;
37449;SDS011;23309;52.582;13.406;2022-08-01T12:14:15;3.13;;;1.80;;
37449;SDS011;23309;52.582;13.406;2022-08-01T12:16:51;1.80;;;1.63;;
37449;SDS011;23309;52.582;13.406;2022-08-01T12:19:19;2.77;;;1.40;;
37449;SDS011;23309;52.582;13.406;2022-08-01T12:24:32;1.87;;;1.60;;
37449;SDS011;23309;52.582;13.406;2022-08-01T12:26:59;1.50;;;1.40;;
37449;SDS011;23309;52.582;13.406;2022-08-01T12:29:34;1.73;;;1.63;;
37449;SDS011;23309;52.582;13.406;2022-08-01T12:32:15;2.63;;;1.50;;
37449;SDS011;23309;52.582;13.406;2022-08-01T12:34:48;2.33;;;1.60;;
37449;SDS011;23309;52.582;13.406;2022-08-01T12:37:15;2.70;;;1.80;;
37449;SDS011;23309;52.582;13.406;2022-08-01T12:39:42;2.80;;;1.63;;
37449;SDS011;23309;52.582;13.406;2022-08-01T12:42:10;1.83;;;1.67;;
37449;SDS011;23309;52.582;13.406;2022-08-01T12:44:37;1.90;;;1.73;;
37449;SDS011;23309;52.582;13.406;2022-08-01T12:47:07;1.90;;;1.80;;
37449;SDS011;23309;52.582;13.406;2022-08-01T12:49:34;1.87;;;1.77;;
37449;SDS011;23309;52.582;13.406;2022-08-01T12:52:01;1.83;;;1.70;;
37449;SDS011;23309;52.582;13.406;2022-08-01T12:54:29;2.13;;;1.60;;
37449;SDS011;23309;52.582;13.406;2022-08-01T12:56:55;2.07;;;1.50;;
37449;SDS011;23309;52.582;13.406;2022-08-01T12:59:22;1.70;;;1.53;;
37449;SDS011;23309;52.582;13.406;2022-08-01T13:01:51;2.40;;;1.70;;
37449;SDS011;23309;52.582;13.406;2022-08-01T13:04:20;2.70;;;1.90;;
37449;SDS011;23309;52.582;13.406;2022-08-01T13:06:47;3.10;;;1.87;;
37449;SDS011;23309;52.582;13.406;2022-08-01T13:09:18;3.27;;;1.80;;
37449;SDS011;23309;52.582;13.406;2022-08-01T13:11:44;4.50;;;2.30;;
37449;SDS011;23309;52.582;13.406;2022-08-01T13:14:10;2.43;;;1.90;;
37449;SDS011;23309;52.582;13.406;2022-08-01T13:16:51;3.67;;;1.70;;
37449;SDS011;23309;52.582;13.406;2022-08-01T13:19:20;1.87;;;1.70;;
37449;SDS011;23309;52.582;13.406;2022-08-01T13:21:56;2.33;;;2.13;;
37449;SDS011;23309;52.582;13.406;2022-08-01T13:24:23;1.70;;;1.60;;
37449;SDS011;23309;52.582;13.406;2022-08-01T13:26:52;4.27;;;1.90;;
37449;SDS011;23309;52.582;13.406;2022-08-01T13:29:21;1.70;;;1.60;;
37449;SDS011;23309;52.582;13.406;2022-08-01T13:31:54;1.90;;;1.80;;
37449;SDS011;23309;52.582;13.406;2022-08-01T13:34:31;2.20;;;1.90;;
37449;SDS011;23309;52.582;13.406;2022-08-01T13:36:59;3.20;;;1.60;;
37449;SDS011;23309;52.582;13.406;2022-08-01T13:39:27;2.23;;;1.80;;
37449;SDS011;23309;52.582;13.406;2022-08-01T13:41:53;2.30;;;1.87;;
37449;SDS011;23309;52.582;13.406;2022-08-01T13:44:20;2.17;;;1.97;;
37449;SDS011;23309;52.582;13.406;2022-08-01T13:46:46;2.20;;;2.00;;
37449;SDS011;23309;52.582;13.406;2022-08-01T13:49:13;3.90;;;1.80;;
37449;SDS011;23309;52.582;13.406;2022-08-01T13:51:42;2.20;;;2.00;;
37449;SDS011;23309;52.582;13.406;2022-08-01T13:54:09;1.83;;;1.70;;
37449;SDS011;23309;52.582;13.406;2022-08-01T13:56:35;2.63;;;2.00;;
37449;SDS011;23309;52.582;13.406;2022-08-01T13:59:02;1.50;;;1.40;;
37449;SDS011;23309;52.582;13.406;2022-08-01T14:01:28;2.27;;;1.70;;
37449;SDS011;23309;52.582;13.406;2022-08-01T14:03:54;2.43;;;2.00;;
37449;SDS011;23309;52.582;13.406;2022-08-01T14:06:20;3.57;;;1.93;;
37449;SDS011;23309;52.582;13.406;2022-08-01T14:08:49;2.50;;;1.70;;
37449;SDS011;23309;52.582;13.406;2022-08-01T14:11:15;4.07;;;1.90;;
37449;SDS011;23309;52.582;13.406;2022-08-01T14:13:42;2.33;;;1.60;;
37449;SDS011;23309;52.582;13.406;2022-08-01T14:16:08;2.00;;;1.80;;
37449;SDS011;23309;52.582;13.406;2022-08-01T14:18:37;1.90;;;1.80;;
37449;SDS011;23309;52.582;13.406;2022-08-01T14:21:03;4.67;;;2.07;;
37449;SDS011;23309;52.582;13.406;2022-08-01T14:23:29;2.37;;;1.97;;
37449;SDS011;23309;52.582;13.406;2022-08-01T14:25:58;2.00;;;1.80;;
37449;SDS011;23309;52.582;13.406;2022-08-01T14:28:24;2.77;;;2.00;;
37449;SDS011;23309;52.582;13.406;2022-08-01T14:30:51;3.07;;;1.90;;
37449;SDS011;23309;52.582;13.406;2022-08-01T14:33:17;3.27;;;1.90;;
37449;SDS011;23309;52.582;13.406;2022-08-01T14:35:43;3.00;;;1.80;;
37449;SDS011;23309;52.582;13.406;2022-08-01T14:38:09;2.40;;;1.63;;
37449;SDS011;23309;52.582;13.406;2022-08-01T14:40:35;2.00;;;1.80;;
37449;SDS011;23309;52.582;13.406;2022-08-01T14:43:04;4.63;;;2.00;;
37449;SDS011;23309;52.582;13.406;2022-08-01T14:45:30;2.40;;;1.93;;
37449;SDS011;23309;52.582;13.406;2022-08-01T14:47:57;2.27;;;1.97;;
37449;SDS011;23309;52.582;13.406;2022-08-01T14:50:24;2.07;;;1.80;;
37449;SDS011;23309;52.582;13.406;2022-08-01T14:52:50;1.90;;;1.60;;